Cartago, Costa Rica
Current Conditions -  °F | °C
As of 5:00 PM on Friday 24 Oct 2014 (Local Time) from MRPV Reporting Station
Haze Haze  
Wind Chill: 72°   Ceiling: 1500
Heat Index: 72°   Visibility: 3mi
Dew Point: 70°   Wind: 6mph
Humidity: 94%   Direction: 290°WNW
Pressure: 29.99"   Gusts: NA
Location:  9.87°N, 83.93°W
Report Text: MRPV 242300Z 29005KT 5000 BR FEW005 BKN015 22/21 A2999 NOSIG
Loading
Personal Weather Stations






























Interactive Weather Map
Tropical Storm Tracking
New forecast layout! Learn more

10-Day Weather Forecast

Advertisements
Track Severe Weather on mobile